createdAt,value
2017-11-22T00:02:20.603Z,60.17
2017-11-22T00:04:48.125Z,63.73
2017-11-22T00:07:15.665Z,54.97
2017-11-22T00:09:43.199Z,72.23
2017-11-22T00:12:10.823Z,61.50
2017-11-22T00:14:38.341Z,55.67
2017-11-22T00:17:05.913Z,61.13
2017-11-22T00:19:33.441Z,49.83
2017-11-22T00:22:00.981Z,53.83
2017-11-22T00:24:28.562Z,63.30
2017-11-22T00:26:56.078Z,53.97
2017-11-22T00:29:23.604Z,47.33
2017-11-22T00:31:51.324Z,58.60
2017-11-22T00:34:18.845Z,57.60
2017-11-22T00:36:46.370Z,51.30
2017-11-22T00:39:13.918Z,49.93
2017-11-22T00:41:41.473Z,48.00
2017-11-22T00:44:09.279Z,56.77
2017-11-22T00:46:36.793Z,46.97
2017-11-22T00:49:04.327Z,60.00
2017-11-22T00:51:31.910Z,51.43
2017-11-22T00:53:59.443Z,49.83
2017-11-22T00:56:27.042Z,50.20
2017-11-22T00:58:54.738Z,53.80
2017-11-22T01:01:22.259Z,48.50
2017-11-22T01:03:49.806Z,60.30
2017-11-22T01:06:17.386Z,50.30
2017-11-22T01:08:44.905Z,48.13
2017-11-22T01:11:12.434Z,48.07
2017-11-22T01:13:40.032Z,50.77
2017-11-22T01:16:07.627Z,49.53
2017-11-22T01:18:35.166Z,45.53
2017-11-22T01:21:02.817Z,60.10
2017-11-22T01:23:30.345Z,63.93
2017-11-22T01:25:57.860Z,49.73
2017-11-22T01:28:25.410Z,52.90
2017-11-22T01:30:52.947Z,45.60
2017-11-22T01:33:20.481Z,40.63
2017-11-22T01:35:48.147Z,50.47
2017-11-22T01:38:15.672Z,41.13
2017-11-22T01:40:43.185Z,41.20
2017-11-22T01:43:10.845Z,38.73
2017-11-22T01:45:38.389Z,42.30
2017-11-22T01:48:05.929Z,43.60
2017-11-22T01:50:33.686Z,46.57
2017-11-22T01:53:01.197Z,40.17
2017-11-22T01:55:28.757Z,42.43
2017-11-22T01:57:56.298Z,42.63
2017-11-22T02:00:23.838Z,43.27
2017-11-22T02:02:51.437Z,50.50
2017-11-22T02:05:18.963Z,40.43
2017-11-22T02:07:46.519Z,55.50
2017-11-22T02:10:14.245Z,45.20
2017-11-22T02:12:41.768Z,46.20
2017-11-22T02:15:09.291Z,43.50
2017-11-22T02:17:36.981Z,46.10
2017-11-22T02:20:04.512Z,46.10
2017-11-22T02:22:32.034Z,49.20
2017-11-22T02:24:59.569Z,43.03
2017-11-22T02:27:27.110Z,42.40
2017-11-22T02:29:54.833Z,41.87
2017-11-22T02:32:22.350Z,42.80
2017-11-22T02:34:49.877Z,42.73
2017-11-22T02:37:17.446Z,43.23
2017-11-22T02:39:45.014Z,50.33
2017-11-22T02:42:12.529Z,39.17
2017-11-22T02:44:40.105Z,40.20
2017-11-22T02:47:07.632Z,41.27
2017-11-22T02:49:35.149Z,36.37
2017-11-22T02:52:02.739Z,46.10
2017-11-22T02:54:30.278Z,46.10
2017-11-22T02:56:57.804Z,38.70
2017-11-22T02:59:25.352Z,44.10
2017-11-22T03:01:52.875Z,49.80
2017-11-22T03:04:20.419Z,48.57
2017-11-22T03:06:47.932Z,44.13
2017-11-22T03:09:15.489Z,40.00
2017-11-22T03:11:43.010Z,60.97
2017-11-22T03:14:10.524Z,48.10
2017-11-22T03:16:38.090Z,51.00
2017-11-22T03:19:05.645Z,65.17
2017-11-22T03:21:33.179Z,51.23
2017-11-22T03:24:00.760Z,43.23
2017-11-22T03:26:28.286Z,43.67
2017-11-22T03:28:55.801Z,40.90
2017-11-22T03:31:23.348Z,44.13
2017-11-22T03:33:50.874Z,53.17
2017-11-22T03:36:18.482Z,48.80
2017-11-22T03:38:46.017Z,52.40
2017-11-22T03:41:13.526Z,49.57
2017-11-22T03:43:41.207Z,49.50
2017-11-22T03:46:08.731Z,47.20
2017-11-22T03:48:36.241Z,44.47
2017-11-22T03:51:09.450Z,45.87
2017-11-22T03:53:42.541Z,42.37
2017-11-22T03:56:10.093Z,44.63
2017-11-22T03:58:37.613Z,45.10
2017-11-22T04:01:05.203Z,44.40
2017-11-22T04:03:32.742Z,41.40
2017-11-22T04:06:04.798Z,45.10
2017-11-22T04:08:32.347Z,49.00
2017-11-22T04:10:59.894Z,45.20
2017-11-22T04:13:27.404Z,39.43
2017-11-22T04:15:54.972Z,40.47
2017-11-22T04:18:22.493Z,36.03
2017-11-22T04:20:55.736Z,45.27
2017-11-22T04:23:23.278Z,41.93
2017-11-22T04:25:50.795Z,47.27
2017-11-22T04:28:18.353Z,42.63
2017-11-22T04:30:45.875Z,45.37
2017-11-22T04:33:13.398Z,44.47
2017-11-22T04:35:40.978Z,39.30
2017-11-22T04:38:08.508Z,41.43
2017-11-22T04:40:36.038Z,43.87
2017-11-22T04:43:03.638Z,49.60
2017-11-22T04:45:31.186Z,39.10
2017-11-22T04:47:58.729Z,38.30
2017-11-22T04:50:26.457Z,37.37
2017-11-22T04:52:54.004Z,34.30
2017-11-22T04:55:21.568Z,43.70
2017-11-22T04:57:49.165Z,39.57
2017-11-22T05:00:16.856Z,38.83
2017-11-22T05:02:44.386Z,40.37
2017-11-22T05:05:11.941Z,34.87
2017-11-22T05:07:39.989Z,33.00
2017-11-22T05:10:07.501Z,42.57
2017-11-22T05:12:35.032Z,36.57
2017-11-22T05:15:02.614Z,39.23
2017-11-22T05:17:30.135Z,41.57
2017-11-22T05:19:57.653Z,37.30
2017-11-22T05:22:25.243Z,38.03
2017-11-22T05:24:52.821Z,36.77
2017-11-22T05:27:20.332Z,38.53
2017-11-22T05:29:47.910Z,43.83
2017-11-22T05:32:15.486Z,45.40
2017-11-22T05:34:43.007Z,43.27
2017-11-22T05:37:10.529Z,46.80
2017-11-22T05:39:38.070Z,44.43
2017-11-22T05:42:05.581Z,39.30
2017-11-22T05:44:33.224Z,42.40
2017-11-22T05:47:00.769Z,37.60
2017-11-22T05:49:28.298Z,39.37
2017-11-22T05:51:55.846Z,47.43
2017-11-22T05:54:23.421Z,40.83
2017-11-22T05:56:50.958Z,58.97
2017-11-22T05:59:18.850Z,49.77
2017-11-22T06:01:46.370Z,41.03
2017-11-22T06:04:13.939Z,49.30
2017-11-22T06:06:41.518Z,43.27
2017-11-22T06:09:09.039Z,48.73
2017-11-22T06:11:36.569Z,52.90
2017-11-22T06:14:04.129Z,46.87
2017-11-22T06:16:31.655Z,44.60
2017-11-22T06:18:59.186Z,64.90
2017-11-22T06:21:26.753Z,48.70
2017-11-22T06:23:54.298Z,56.87
2017-11-22T06:26:21.830Z,50.10
2017-11-22T06:28:49.582Z,58.20
2017-11-22T06:31:17.111Z,57.00
2017-11-22T06:33:44.653Z,60.10
2017-11-22T06:36:12.405Z,55.20
2017-11-22T06:38:39.928Z,52.03
2017-11-22T06:41:07.451Z,45.83
2017-11-22T06:43:34.994Z,48.90
2017-11-22T06:46:02.534Z,52.43
2017-11-22T06:48:30.134Z,43.13
2017-11-22T06:50:57.686Z,42.73
2017-11-22T06:53:25.263Z,45.20
2017-11-22T06:55:52.772Z,43.03
2017-11-22T06:58:20.295Z,51.83
2017-11-22T07:00:47.870Z,41.63
2017-11-22T07:06:17.494Z,46.40
2017-11-22T07:08:45.043Z,44.37
2017-11-22T07:11:12.575Z,42.07
2017-11-22T07:13:40.323Z,42.67
2017-11-22T07:16:07.861Z,47.33
2017-11-22T07:18:35.380Z,46.60
2017-11-22T07:21:02.951Z,57.83
2017-11-22T07:23:30.474Z,47.83
2017-11-22T07:25:58.042Z,43.37
2017-11-22T07:28:25.627Z,54.20
2017-11-22T07:30:53.326Z,56.17
2017-11-22T07:33:20.863Z,51.50
2017-11-22T07:35:54.102Z,58.17
2017-11-22T07:38:21.618Z,53.23
2017-11-22T07:40:49.145Z,53.30
2017-11-22T07:43:16.841Z,55.60
2017-11-22T07:45:44.393Z,40.90
2017-11-22T07:48:15.734Z,55.87
2017-11-22T07:50:46.109Z,40.90
2017-11-22T07:53:13.679Z,46.77
2017-11-22T07:55:41.206Z,48.60
2017-11-22T07:58:08.786Z,48.93
2017-11-22T08:00:36.329Z,44.97
2017-11-22T08:03:08.950Z,48.23
2017-11-22T08:05:36.492Z,44.93
2017-11-22T08:08:04.049Z,46.00
2017-11-22T08:10:31.656Z,42.80
2017-11-22T08:12:59.184Z,42.10
2017-11-22T08:15:26.705Z,41.90
2017-11-22T08:17:54.282Z,39.60
2017-11-22T08:20:21.802Z,38.87
2017-11-22T08:22:49.330Z,44.43
2017-11-22T08:25:16.897Z,42.43
2017-11-22T08:27:44.421Z,43.43
2017-11-22T08:30:11.933Z,44.97
2017-11-22T08:32:39.572Z,39.87
2017-11-22T08:35:07.115Z,36.50
2017-11-22T08:37:34.685Z,47.47
2017-11-22T08:40:02.237Z,42.43
2017-11-22T08:42:30.857Z,37.73
2017-11-22T08:44:58.377Z,39.97
2017-11-22T08:47:25.903Z,35.07
2017-11-22T08:49:53.585Z,35.90
2017-11-22T08:52:21.107Z,40.70
2017-11-22T08:54:54.249Z,39.17
2017-11-22T08:57:27.497Z,33.60
2017-11-22T09:00:00.869Z,36.07
2017-11-22T09:02:28.390Z,36.73
2017-11-22T09:04:55.909Z,38.63
2017-11-22T09:07:25.448Z,35.40
2017-11-22T09:09:52.980Z,37.80
2017-11-22T09:12:26.063Z,36.10
2017-11-22T09:14:55.321Z,44.00
2017-11-22T09:17:22.889Z,36.40
2017-11-22T09:19:50.424Z,33.03
2017-11-22T09:22:17.945Z,34.03
2017-11-22T09:24:51.246Z,39.10
2017-11-22T09:27:24.361Z,38.00
2017-11-22T09:29:56.924Z,33.47
2017-11-22T09:32:30.059Z,37.20
2017-11-22T09:35:03.270Z,34.47
2017-11-22T09:37:30.850Z,35.53
2017-11-22T09:39:58.369Z,38.13
2017-11-22T09:42:25.905Z,35.80
2017-11-22T09:44:53.437Z,36.20
2017-11-22T09:47:21.045Z,34.63
2017-11-22T09:49:48.727Z,36.97
2017-11-22T09:52:16.253Z,36.20
2017-11-22T09:54:43.850Z,33.90
2017-11-22T09:57:11.396Z,33.70
2017-11-22T09:59:38.919Z,39.57
2017-11-22T10:02:06.505Z,36.00
2017-11-22T10:04:34.106Z,40.70
2017-11-22T10:07:01.634Z,36.30
2017-11-22T10:09:29.163Z,37.80
2017-11-22T10:11:56.715Z,33.30
2017-11-22T10:14:24.246Z,34.43
2017-11-22T10:20:00.082Z,34.50
2017-11-22T10:22:29.767Z,36.43
2017-11-22T10:25:03.109Z,42.47
2017-11-22T10:27:30.786Z,43.70
2017-11-22T10:30:13.874Z,42.10
2017-11-22T10:32:50.149Z,40.90
2017-11-22T10:35:17.757Z,41.30
2017-11-22T10:37:45.282Z,38.03
2017-11-22T10:40:12.879Z,43.90
2017-11-22T10:42:40.866Z,33.73
2017-11-22T10:45:09.201Z,35.70
2017-11-22T10:47:36.783Z,35.67
2017-11-22T10:50:04.350Z,36.17
2017-11-22T10:52:31.907Z,38.67
2017-11-22T10:54:59.477Z,36.07
2017-11-22T10:57:27.033Z,34.87
2017-11-22T10:59:54.562Z,34.97
2017-11-22T11:02:22.111Z,39.43
2017-11-22T11:04:49.888Z,43.37
2017-11-22T11:07:17.676Z,37.50
2017-11-22T11:09:45.215Z,42.40
2017-11-22T11:12:12.896Z,41.90
2017-11-22T11:14:40.440Z,40.37
2017-11-22T11:17:07.971Z,42.57
2017-11-22T11:19:35.550Z,43.47
2017-11-22T11:22:03.073Z,38.33
2017-11-22T11:24:30.645Z,43.63
2017-11-22T11:26:58.233Z,45.90
2017-11-22T11:29:25.823Z,32.50
2017-11-22T11:31:53.358Z,36.93
2017-11-22T11:34:21.097Z,36.40
2017-11-22T11:36:48.638Z,41.43
2017-11-22T11:39:16.195Z,38.33
2017-11-22T11:41:44.016Z,38.00
2017-11-22T11:44:11.567Z,37.07
2017-11-22T11:46:39.100Z,41.60
2017-11-22T11:49:06.668Z,36.27
2017-11-22T11:51:34.216Z,33.40
2017-11-22T11:54:01.765Z,38.23
2017-11-22T11:56:29.309Z,37.87
2017-11-22T11:58:56.832Z,43.67
2017-11-22T12:01:24.545Z,39.47
2017-11-22T12:03:52.075Z,37.10
2017-11-22T12:06:19.602Z,35.63
2017-11-22T12:08:47.253Z,30.00
2017-11-22T12:11:15.006Z,42.00
2017-11-22T12:13:42.525Z,42.33
2017-11-22T12:16:10.046Z,42.43
2017-11-22T12:18:37.611Z,42.33
2017-11-22T12:21:05.135Z,33.90
2017-11-22T12:23:35.513Z,39.60
2017-11-22T12:26:03.081Z,43.03
2017-11-22T12:28:30.601Z,39.70
2017-11-22T12:30:58.144Z,41.90
2017-11-22T12:33:25.709Z,41.60
2017-11-22T12:35:53.234Z,43.60
2017-11-22T12:38:23.266Z,48.23
2017-11-22T12:40:50.993Z,45.93
2017-11-22T12:43:18.524Z,40.97
2017-11-22T12:45:46.059Z,41.13
2017-11-22T12:48:13.610Z,40.60
2017-11-22T12:50:41.190Z,41.77
2017-11-22T12:53:08.711Z,40.87
2017-11-22T12:55:36.230Z,37.00
2017-11-22T12:58:03.799Z,45.00
2017-11-22T13:00:31.350Z,47.43
2017-11-22T13:02:58.889Z,39.33
2017-11-22T13:05:26.447Z,39.80
2017-11-22T13:07:54.035Z,49.63
2017-11-22T13:10:27.198Z,41.07
2017-11-22T13:12:54.750Z,42.20
2017-11-22T13:15:22.283Z,37.00
2017-11-22T13:17:49.835Z,49.37
2017-11-22T13:20:17.375Z,48.90
2017-11-22T13:22:44.957Z,45.37
2017-11-22T13:25:12.478Z,47.93
2017-11-22T13:27:40.102Z,47.67
2017-11-22T13:30:07.697Z,44.40
2017-11-22T13:32:41.783Z,44.07
2017-11-22T13:35:09.487Z,49.20
2017-11-22T13:37:37.112Z,56.00
2017-11-22T13:40:04.692Z,50.90
2017-11-22T13:42:32.287Z,44.47
2017-11-22T13:44:59.901Z,45.13
2017-11-22T13:47:27.504Z,44.80
2017-11-22T13:49:55.053Z,45.93
2017-11-22T13:52:22.594Z,42.27
2017-11-22T13:54:50.175Z,38.23
2017-11-22T13:57:17.721Z,43.00
2017-11-22T13:59:45.545Z,41.50
2017-11-22T14:02:13.128Z,38.63
2017-11-22T14:04:40.689Z,45.63
2017-11-22T14:07:08.245Z,44.13
2017-11-22T14:09:36.003Z,42.17
2017-11-22T14:12:03.624Z,40.70
2017-11-22T14:14:31.249Z,41.37
2017-11-22T14:16:58.817Z,41.30
2017-11-22T14:19:26.494Z,40.83
2017-11-22T14:21:54.033Z,43.93
2017-11-22T14:24:21.577Z,45.00
2017-11-22T14:26:49.197Z,38.77
2017-11-22T14:29:17.065Z,43.90
2017-11-22T14:31:44.622Z,41.00
2017-11-22T14:34:12.163Z,39.23
2017-11-22T14:36:39.896Z,40.93
2017-11-22T14:39:07.432Z,37.73
2017-11-22T14:41:35.093Z,40.80
2017-11-22T14:44:02.822Z,39.70
2017-11-22T14:46:30.438Z,39.83
2017-11-22T14:48:58.018Z,40.90
2017-11-22T14:51:25.605Z,39.90
2017-11-22T14:53:53.129Z,36.30
2017-11-22T14:56:20.786Z,33.60
2017-11-22T14:58:48.355Z,37.50
2017-11-22T15:01:15.926Z,36.23
2017-11-22T15:03:43.612Z,41.83
2017-11-22T15:06:11.150Z,37.70
2017-11-22T15:08:38.692Z,43.53
2017-11-22T15:11:06.306Z,37.23
2017-11-22T15:13:34.046Z,42.80
2017-11-22T15:16:01.609Z,34.83
2017-11-22T15:18:29.157Z,41.77
2017-11-22T15:20:56.961Z,40.70
2017-11-22T15:23:24.502Z,42.57
2017-11-22T15:25:52.024Z,41.97
2017-11-22T15:28:19.787Z,49.90
2017-11-22T15:30:47.337Z,36.50
2017-11-22T15:33:14.883Z,44.50
2017-11-22T15:35:42.476Z,44.63
2017-11-22T15:38:10.108Z,37.40
2017-11-22T15:40:37.657Z,34.80
2017-11-22T15:43:06.456Z,39.80
2017-11-22T15:45:33.974Z,36.43
2017-11-22T15:48:01.491Z,34.93
2017-11-22T15:50:29.279Z,42.13
2017-11-22T15:52:56.798Z,36.57
2017-11-22T15:55:24.317Z,36.33
2017-11-22T15:57:51.998Z,36.33
2017-11-22T16:00:19.543Z,33.07
2017-11-22T16:02:47.152Z,35.90
2017-11-22T16:05:14.813Z,34.77
2017-11-22T16:07:42.355Z,32.37
2017-11-22T16:10:09.886Z,36.57
2017-11-22T16:12:37.745Z,32.63
2017-11-22T16:15:05.294Z,40.23
2017-11-22T16:17:32.810Z,31.23
2017-11-22T16:20:00.385Z,33.90
2017-11-22T16:22:28.333Z,36.40
2017-11-22T16:24:55.837Z,40.17
2017-11-22T16:27:23.585Z,33.07
2017-11-22T16:29:51.106Z,28.60
2017-11-22T16:32:18.637Z,32.30
2017-11-22T16:34:46.467Z,30.53
2017-11-22T16:37:13.978Z,28.13
2017-11-22T16:39:41.678Z,26.23
2017-11-22T16:42:09.361Z,33.90
2017-11-22T16:44:36.914Z,30.37
2017-11-22T16:47:04.435Z,30.27
2017-11-22T16:49:32.302Z,35.13
2017-11-22T16:51:59.821Z,26.90
2017-11-22T16:54:27.348Z,28.27
2017-11-22T16:56:54.920Z,26.23
2017-11-22T16:59:22.443Z,33.83
2017-11-22T17:01:49.974Z,32.53
2017-11-22T17:04:17.618Z,32.17
2017-11-22T17:06:45.264Z,26.80
2017-11-22T17:09:12.801Z,29.03
2017-11-22T17:11:40.338Z,27.17
2017-11-22T17:14:07.854Z,29.10
2017-11-22T17:16:35.385Z,25.97
2017-11-22T17:19:02.970Z,27.07
2017-11-22T17:21:30.498Z,29.40
2017-11-22T17:23:58.070Z,26.10
2017-11-22T17:26:25.613Z,31.73
2017-11-22T17:28:53.129Z,24.77
2017-11-22T17:31:20.735Z,35.53
2017-11-22T17:33:48.252Z,30.63
2017-11-22T17:36:15.938Z,28.80
2017-11-22T17:38:43.445Z,25.47
2017-11-22T17:41:10.974Z,24.40
2017-11-22T17:43:38.508Z,28.87
2017-11-22T17:46:06.138Z,23.60
2017-11-22T17:48:33.695Z,23.20
2017-11-22T17:51:01.227Z,24.67
2017-11-22T17:53:28.963Z,22.80
2017-11-22T17:55:56.536Z,20.60
2017-11-22T17:58:24.307Z,22.13
2017-11-22T18:00:51.912Z,22.53
2017-11-22T18:03:19.422Z,26.63
2017-11-22T18:05:46.949Z,24.30
2017-11-22T18:08:14.911Z,26.53
2017-11-22T18:10:42.568Z,17.40
2017-11-22T18:13:10.125Z,18.37
2017-11-22T18:15:37.834Z,21.83
2017-11-22T18:18:05.362Z,17.77
2017-11-22T18:20:32.910Z,23.57
2017-11-22T18:23:00.457Z,18.07
2017-11-22T18:25:28.115Z,19.67
2017-11-22T18:27:55.789Z,20.43
2017-11-22T18:30:23.385Z,22.13
2017-11-22T18:32:50.955Z,25.90
2017-11-22T18:35:18.547Z,23.30
2017-11-22T18:37:46.070Z,24.43
2017-11-22T18:40:13.653Z,25.23
2017-11-22T18:42:41.204Z,21.40
2017-11-22T18:45:08.732Z,22.17
2017-11-22T18:47:36.279Z,18.93
2017-11-22T18:50:03.794Z,19.07
2017-11-22T18:52:31.341Z,19.13
2017-11-22T18:54:59.027Z,20.17
2017-11-22T18:57:26.625Z,19.30
2017-11-22T18:59:54.146Z,19.43
2017-11-22T19:02:21.664Z,18.57
2017-11-22T19:04:49.290Z,18.20
2017-11-22T19:07:16.969Z,19.60
2017-11-22T19:09:44.565Z,20.40
2017-11-22T19:12:12.082Z,21.23
2017-11-22T19:14:39.666Z,15.40
2017-11-22T19:17:07.215Z,18.50
2017-11-22T19:19:34.753Z,21.00
2017-11-22T19:22:02.274Z,22.20
2017-11-22T19:24:29.816Z,18.80
2017-11-22T19:26:57.453Z,17.87
2017-11-22T19:29:26.912Z,13.87
2017-11-22T19:31:54.430Z,17.10
2017-11-22T19:34:21.959Z,19.60
2017-11-22T19:36:49.572Z,15.33
2017-11-22T19:39:17.082Z,19.13
2017-11-22T19:41:44.593Z,18.23
2017-11-22T19:44:12.154Z,19.93
2017-11-22T19:46:39.672Z,20.87
2017-11-22T19:49:07.671Z,17.30
2017-11-22T19:51:35.232Z,15.27
2017-11-22T19:54:02.741Z,18.07
2017-11-22T19:56:30.634Z,16.53
2017-11-22T19:58:58.166Z,15.43
2017-11-22T20:01:25.685Z,16.00
2017-11-22T20:03:53.377Z,19.13
2017-11-22T20:06:20.944Z,18.60
2017-11-22T20:08:48.453Z,15.53
2017-11-22T20:11:15.985Z,13.20
2017-11-22T20:13:43.685Z,15.00
2017-11-22T20:16:11.199Z,13.20
2017-11-22T20:18:38.704Z,16.03
2017-11-22T20:21:06.281Z,13.47
2017-11-22T20:23:33.797Z,12.80
2017-11-22T20:26:01.301Z,9.60
2017-11-22T20:28:29.666Z,14.60
2017-11-22T20:30:57.269Z,15.00
2017-11-22T20:33:25.098Z,13.57
2017-11-22T20:35:52.671Z,16.30
2017-11-22T20:38:20.434Z,11.13
2017-11-22T20:40:47.957Z,13.90
2017-11-22T20:43:15.524Z,14.20
2017-11-22T20:45:43.151Z,15.77
2017-11-22T20:48:10.732Z,13.80
2017-11-22T20:50:38.323Z,11.07
2017-11-22T20:53:05.834Z,11.17
2017-11-22T20:55:33.435Z,11.20
2017-11-22T20:58:01.026Z,11.87
2017-11-22T21:00:28.552Z,16.53
2017-11-22T21:02:56.069Z,17.30
2017-11-22T21:05:23.922Z,12.37
2017-11-22T21:07:51.438Z,11.63
2017-11-22T21:10:19.014Z,13.83
2017-11-22T21:12:46.546Z,16.47
2017-11-22T21:15:14.074Z,13.30
2017-11-22T21:17:41.614Z,13.53
2017-11-22T21:20:09.219Z,13.87
2017-11-22T21:22:36.828Z,14.67
2017-11-22T21:25:04.342Z,16.10
2017-11-22T21:27:31.919Z,10.00
2017-11-22T21:29:59.435Z,13.43
2017-11-22T21:32:27.062Z,9.43
2017-11-22T21:34:54.634Z,10.90
2017-11-22T21:37:22.261Z,9.80
2017-11-22T21:39:49.779Z,11.10
2017-11-22T21:42:17.334Z,11.37
2017-11-22T21:44:44.841Z,7.20
2017-11-22T21:47:12.359Z,8.43
2017-11-22T21:49:39.926Z,10.17
2017-11-22T21:55:05.917Z,12.23
2017-11-22T21:57:33.431Z,11.73
2017-11-22T22:00:00.967Z,10.97
2017-11-22T22:02:28.525Z,10.97
2017-11-22T22:04:56.210Z,15.50
2017-11-22T22:07:23.712Z,18.40
2017-11-22T22:09:51.212Z,9.23
2017-11-22T22:12:18.795Z,12.93
2017-11-22T22:14:46.301Z,8.80
2017-11-22T22:17:13.830Z,8.87
2017-11-22T22:19:41.543Z,13.47
2017-11-22T22:22:09.055Z,9.10
2017-11-22T22:24:36.561Z,7.93
2017-11-22T22:27:04.094Z,9.83
2017-11-22T22:29:31.629Z,8.30
2017-11-22T22:31:59.198Z,10.40
2017-11-22T22:34:26.974Z,12.90
2017-11-22T22:36:54.503Z,10.53
2017-11-22T22:39:22.047Z,9.80
2017-11-22T22:41:49.613Z,10.80
2017-11-22T22:44:17.118Z,7.77
2017-11-22T22:46:44.625Z,8.90
2017-11-22T22:49:12.335Z,8.93
2017-11-22T22:51:39.851Z,8.63
2017-11-22T22:54:07.403Z,7.80
2017-11-22T22:56:35.061Z,4.87
2017-11-22T22:59:02.599Z,14.70
2017-11-22T23:01:30.121Z,12.87
2017-11-22T23:03:57.862Z,6.40
2017-11-22T23:06:25.391Z,11.50
2017-11-22T23:08:52.893Z,8.87
2017-11-22T23:11:20.577Z,7.50
2017-11-22T23:13:48.680Z,8.70
2017-11-22T23:16:16.193Z,7.40
2017-11-22T23:18:43.750Z,8.90
2017-11-22T23:21:11.286Z,6.80
2017-11-22T23:23:38.836Z,9.20
2017-11-22T23:26:06.546Z,7.50
2017-11-22T23:28:34.099Z,9.20
2017-11-22T23:31:01.627Z,12.73
2017-11-22T23:33:29.199Z,8.40
2017-11-22T23:35:56.721Z,9.30
2017-11-22T23:38:24.267Z,5.13
2017-11-22T23:40:51.798Z,9.00
2017-11-22T23:43:19.334Z,6.33
2017-11-22T23:45:46.919Z,7.27
2017-11-22T23:48:14.451Z,7.97
2017-11-22T23:50:42.027Z,9.63
2017-11-22T23:53:09.557Z,8.67
2017-11-22T23:55:37.070Z,8.37
2017-11-22T23:58:04.610Z,7.77
